createdAt,value
2017-04-16T00:00:12.232Z,65.40
2017-04-16T00:01:11.215Z,65.70
2017-04-16T00:02:10.178Z,65.60
2017-04-16T00:03:09.158Z,65.50
2017-04-16T00:04:08.176Z,65.60
2017-04-16T00:05:07.955Z,65.90
2017-04-16T00:06:06.915Z,65.80
2017-04-16T00:07:05.917Z,66.00
2017-04-16T00:08:04.894Z,66.10
2017-04-16T00:09:03.876Z,66.50
2017-04-16T00:10:02.879Z,66.40
2017-04-16T00:11:01.847Z,66.70
2017-04-16T00:12:00.816Z,66.60
2017-04-16T00:12:59.789Z,66.90
2017-04-16T00:13:58.764Z,67.20
2017-04-16T00:14:57.741Z,67.30
2017-04-16T00:15:56.764Z,67.30
2017-04-16T00:16:55.793Z,67.40
2017-04-16T00:17:54.746Z,67.40
2017-04-16T00:18:53.729Z,67.60
2017-04-16T00:19:52.704Z,67.50
2017-04-16T00:20:51.687Z,67.50
2017-04-16T00:21:50.695Z,67.80
2017-04-16T00:22:50.415Z,67.80
2017-04-16T00:23:49.380Z,67.90
2017-04-16T00:24:48.395Z,68.00
2017-04-16T00:25:47.383Z,68.00
2017-04-16T00:26:46.430Z,68.00
2017-04-16T00:27:45.416Z,68.30
2017-04-16T00:28:44.384Z,68.40
2017-04-16T00:29:43.395Z,68.40
2017-04-16T00:30:42.417Z,68.70
2017-04-16T00:31:41.417Z,68.90
2017-04-16T00:32:40.505Z,69.00
2017-04-16T00:33:39.527Z,69.00
2017-04-16T00:34:38.495Z,69.10
2017-04-16T00:35:38.213Z,69.20
2017-04-16T00:36:37.181Z,69.50
2017-04-16T00:37:36.904Z,69.50
2017-04-16T00:38:35.863Z,69.70
2017-04-16T00:39:34.863Z,69.70
2017-04-16T00:40:33.837Z,69.80
2017-04-16T00:41:32.871Z,70.00
2017-04-16T00:42:31.852Z,70.00
2017-04-16T00:43:30.859Z,70.00
2017-04-16T00:44:29.821Z,69.80
2017-04-16T00:45:28.841Z,69.90
2017-04-16T00:46:28.555Z,69.80
2017-04-16T00:47:27.526Z,69.80
2017-04-16T00:48:26.525Z,70.00
2017-04-16T00:49:25.567Z,70.00
2017-04-16T00:50:24.522Z,70.00
2017-04-16T00:51:23.504Z,70.00
2017-04-16T00:52:22.486Z,70.10
2017-04-16T00:53:21.456Z,70.00
2017-04-16T00:54:20.420Z,69.90
2017-04-16T00:55:19.389Z,70.10
2017-04-16T00:56:19.125Z,69.70
2017-04-16T00:57:18.133Z,69.70
2017-04-16T00:58:17.126Z,69.70
2017-04-16T00:59:16.096Z,69.80
2017-04-16T01:00:16.961Z,70.00
2017-04-16T01:01:22.043Z,70.00
2017-04-16T01:02:26.655Z,69.90
2017-04-16T01:03:25.638Z,69.70
2017-04-16T01:04:24.912Z,69.80
2017-04-16T01:05:23.876Z,70.00
2017-04-16T01:06:22.872Z,70.00
2017-04-16T01:07:21.839Z,69.90
2017-04-16T01:08:20.858Z,69.70
2017-04-16T01:09:19.840Z,69.60
2017-04-16T01:10:19.544Z,69.00
2017-04-16T01:11:18.527Z,69.40
2017-04-16T01:12:17.501Z,69.60
2017-04-16T01:13:16.468Z,69.60
2017-04-16T01:14:15.446Z,69.80
2017-04-16T01:15:14.426Z,69.60
2017-04-16T01:16:13.406Z,69.70
2017-04-16T01:17:12.368Z,69.60
2017-04-16T01:18:11.353Z,69.40
2017-04-16T01:19:10.333Z,69.50
2017-04-16T01:20:09.336Z,69.60
2017-04-16T01:21:08.312Z,69.80
2017-04-16T01:22:07.286Z,69.70
2017-04-16T01:23:06.254Z,69.50
2017-04-16T01:24:05.224Z,69.60
2017-04-16T01:25:04.272Z,69.60
2017-04-16T01:26:03.300Z,69.70
2017-04-16T01:27:02.272Z,70.00
2017-04-16T01:28:01.244Z,69.80
2017-04-16T01:29:00.969Z,69.80
2017-04-16T01:29:59.953Z,69.80
2017-04-16T01:30:58.963Z,69.90
2017-04-16T01:31:57.980Z,69.70
2017-04-16T01:32:57.399Z,69.80
2017-04-16T01:33:56.384Z,69.90
2017-04-16T01:34:55.336Z,69.90
2017-04-16T01:35:55.090Z,70.20
2017-04-16T01:36:54.069Z,69.50
2017-04-16T01:37:53.076Z,69.30
2017-04-16T01:38:52.052Z,69.40
2017-04-16T01:39:51.050Z,69.00
2017-04-16T01:40:50.020Z,69.00
2017-04-16T01:41:49.017Z,68.90
2017-04-16T01:42:47.991Z,68.90
2017-04-16T01:43:47.089Z,68.70
2017-04-16T01:44:46.078Z,68.60
2017-04-16T01:45:45.035Z,68.80
2017-04-16T01:46:44.766Z,68.50
2017-04-16T01:47:43.793Z,68.00
2017-04-16T01:48:42.759Z,67.90
2017-04-16T01:49:41.753Z,68.10
2017-04-16T01:50:40.719Z,68.10
2017-04-16T01:51:39.723Z,67.80
2017-04-16T01:52:38.688Z,68.00
2017-04-16T01:53:37.676Z,67.70
2017-04-16T01:54:37.396Z,67.70
2017-04-16T01:55:36.403Z,67.80
2017-04-16T01:56:35.355Z,67.90
2017-04-16T01:57:34.323Z,67.80
2017-04-16T01:58:34.045Z,67.60
2017-04-16T01:59:33.020Z,67.70
2017-04-16T02:00:32.009Z,67.60
2017-04-16T02:01:31.046Z,67.70
2017-04-16T02:02:30.063Z,67.30
2017-04-16T02:03:29.019Z,67.50
2017-04-16T02:04:28.019Z,67.70
2017-04-16T02:05:27.045Z,67.70
2017-04-16T02:06:26.019Z,68.00
2017-04-16T02:07:29.273Z,68.00
2017-04-16T02:08:28.241Z,68.00
2017-04-16T02:09:27.215Z,68.00
2017-04-16T02:10:26.217Z,68.30
2017-04-16T02:11:25.205Z,68.40
2017-04-16T02:12:24.189Z,68.40
2017-04-16T02:13:23.364Z,68.40
2017-04-16T02:14:22.371Z,68.70
2017-04-16T02:15:21.527Z,68.80
2017-04-16T02:16:20.483Z,68.80
2017-04-16T02:17:20.199Z,68.80
2017-04-16T02:18:19.187Z,68.80
2017-04-16T02:19:18.194Z,68.60
2017-04-16T02:20:17.176Z,68.80
2017-04-16T02:21:16.183Z,68.60
2017-04-16T02:22:15.184Z,68.40
2017-04-16T02:23:14.152Z,68.40
2017-04-16T02:24:13.137Z,68.40
2017-04-16T02:25:12.147Z,68.50
2017-04-16T02:26:11.115Z,68.60
2017-04-16T02:27:10.108Z,68.70
2017-04-16T02:28:09.109Z,69.00
2017-04-16T02:29:08.856Z,68.90
2017-04-16T02:30:07.882Z,69.30
2017-04-16T02:31:06.887Z,69.30
2017-04-16T02:32:05.866Z,69.40
2017-04-16T02:33:04.856Z,69.40
2017-04-16T02:34:03.848Z,69.40
2017-04-16T02:35:02.969Z,69.50
2017-04-16T02:36:02.059Z,69.50
2017-04-16T02:37:01.061Z,69.50
2017-04-16T02:38:00.094Z,69.60
2017-04-16T02:38:59.173Z,69.80
2017-04-16T02:39:58.230Z,69.50
2017-04-16T02:40:57.353Z,70.10
2017-04-16T02:41:56.465Z,69.60
2017-04-16T02:42:55.497Z,69.30
2017-04-16T02:43:54.523Z,69.40
2017-04-16T02:44:53.692Z,69.30
2017-04-16T02:45:52.722Z,69.50
2017-04-16T02:46:51.712Z,69.50
2017-04-16T02:47:50.780Z,69.70
2017-04-16T02:48:49.838Z,70.00
2017-04-16T02:49:49.079Z,70.10
2017-04-16T02:50:48.889Z,70.00
2017-04-16T02:51:47.913Z,70.90
2017-04-16T02:52:46.951Z,70.00
2017-04-16T02:53:46.693Z,70.00
2017-04-16T02:54:45.702Z,69.90
2017-04-16T02:55:44.726Z,69.90
2017-04-16T02:56:43.755Z,69.70
2017-04-16T02:57:42.739Z,69.70
2017-04-16T02:58:42.578Z,70.30
2017-04-16T02:59:41.559Z,69.80
2017-04-16T03:00:40.559Z,69.50
2017-04-16T03:01:40.303Z,69.50
2017-04-16T03:02:39.269Z,69.60
2017-04-16T03:03:38.273Z,69.60
2017-04-16T03:04:37.253Z,69.70
2017-04-16T03:05:36.242Z,69.60
2017-04-16T03:06:35.415Z,69.60
2017-04-16T03:07:34.399Z,69.80
2017-04-16T03:08:33.373Z,69.90
2017-04-16T03:09:32.374Z,70.00
2017-04-16T03:10:31.344Z,70.10
2017-04-16T03:11:30.319Z,70.00
2017-04-16T03:12:29.305Z,69.90
2017-04-16T03:13:28.288Z,69.80
2017-04-16T03:14:27.277Z,69.80
2017-04-16T03:15:26.286Z,69.90
2017-04-16T03:16:25.256Z,70.00
2017-04-16T03:17:24.225Z,69.80
2017-04-16T03:18:23.232Z,69.70
2017-04-16T03:19:22.192Z,69.70
2017-04-16T03:20:21.167Z,69.80
2017-04-16T03:21:20.144Z,69.60
2017-04-16T03:22:19.113Z,69.60
2017-04-16T03:23:18.081Z,69.70
2017-04-16T03:24:17.094Z,69.40
2017-04-16T03:25:16.055Z,69.50
2017-04-16T03:26:15.286Z,69.60
2017-04-16T03:27:14.245Z,69.70
2017-04-16T03:28:13.231Z,69.60
2017-04-16T03:29:12.200Z,69.30
2017-04-16T03:30:11.254Z,69.30
2017-04-16T03:31:10.973Z,69.10
2017-04-16T03:32:09.931Z,69.00
2017-04-16T03:33:09.665Z,68.90
2017-04-16T03:34:08.642Z,69.20
2017-04-16T03:35:07.619Z,69.30
2017-04-16T03:36:06.646Z,69.50
2017-04-16T03:37:05.629Z,69.30
2017-04-16T03:38:04.607Z,69.50
2017-04-16T03:39:03.634Z,69.40
2017-04-16T03:40:03.366Z,69.50
2017-04-16T03:41:02.380Z,69.70
2017-04-16T03:42:01.388Z,70.20
2017-04-16T03:43:00.353Z,70.40
2017-04-16T03:43:59.319Z,71.40
2017-04-16T03:44:58.299Z,70.80
2017-04-16T03:45:57.251Z,70.80
2017-04-16T03:46:56.248Z,70.50
2017-04-16T03:47:55.240Z,70.60
2017-04-16T03:48:54.223Z,70.50
2017-04-16T03:49:53.205Z,70.70
2017-04-16T03:50:52.184Z,71.40
2017-04-16T03:51:51.141Z,71.40
2017-04-16T03:52:50.883Z,71.40
2017-04-16T03:53:49.872Z,71.50
2017-04-16T03:54:48.835Z,71.70
2017-04-16T03:55:47.789Z,71.50
2017-04-16T03:56:46.765Z,72.10
2017-04-16T03:57:45.754Z,71.20
2017-04-16T03:58:45.444Z,71.80
2017-04-16T03:59:44.435Z,72.10
2017-04-16T04:00:44.214Z,71.80
2017-04-16T04:01:43.917Z,71.70
2017-04-16T04:02:42.896Z,72.60
2017-04-16T04:03:41.884Z,71.70
2017-04-16T04:04:40.889Z,71.90
2017-04-16T04:05:39.997Z,71.60
2017-04-16T04:06:38.973Z,72.30
2017-04-16T04:07:37.932Z,72.10
2017-04-16T04:08:36.904Z,71.90
2017-04-16T04:09:35.912Z,71.60
2017-04-16T04:10:34.893Z,71.80
2017-04-16T04:11:33.928Z,71.90
2017-04-16T04:12:32.908Z,71.70
2017-04-16T04:13:31.981Z,71.70
2017-04-16T04:14:30.940Z,71.60
2017-04-16T04:15:29.896Z,71.90
2017-04-16T04:16:28.865Z,71.80
2017-04-16T04:17:28.018Z,71.60
2017-04-16T04:18:26.972Z,71.50
2017-04-16T04:19:26.023Z,71.50
2017-04-16T04:20:25.024Z,71.80
2017-04-16T04:21:24.034Z,71.80
2017-04-16T04:22:23.038Z,71.40
2017-04-16T04:23:22.080Z,71.60
2017-04-16T04:24:21.061Z,71.80
2017-04-16T04:25:20.035Z,71.40
2017-04-16T04:26:19.020Z,71.40
2017-04-16T04:27:17.995Z,71.20
2017-04-16T04:28:16.967Z,71.00
2017-04-16T04:29:16.684Z,71.00
2017-04-16T04:30:15.640Z,71.20
2017-04-16T04:31:15.331Z,71.00
2017-04-16T04:32:14.313Z,70.90
2017-04-16T04:33:13.304Z,70.90
2017-04-16T04:34:12.268Z,71.20
2017-04-16T04:35:11.263Z,71.30
2017-04-16T04:36:10.222Z,71.50
2017-04-16T04:37:09.185Z,71.50
2017-04-16T04:38:08.176Z,71.30
2017-04-16T04:39:07.136Z,71.00
2017-04-16T04:40:06.123Z,71.40
2017-04-16T04:41:05.108Z,71.40
2017-04-16T04:42:04.071Z,71.20
2017-04-16T04:43:03.037Z,71.30
2017-04-16T04:44:02.008Z,72.30
2017-04-16T04:45:01.734Z,71.30
2017-04-16T04:46:00.702Z,71.50
2017-04-16T04:46:59.712Z,71.50
2017-04-16T04:47:58.677Z,71.20
2017-04-16T04:48:57.639Z,71.30
2017-04-16T04:49:57.329Z,71.30
2017-04-16T04:50:57.052Z,71.60
2017-04-16T04:51:56.043Z,71.50
2017-04-16T04:52:55.033Z,71.50
2017-04-16T04:53:53.986Z,71.30
2017-04-16T04:54:52.967Z,71.30
2017-04-16T04:55:52.699Z,71.90
2017-04-16T04:56:51.654Z,71.30
2017-04-16T04:57:51.356Z,71.40
2017-04-16T04:58:50.350Z,71.50
2017-04-16T04:59:49.328Z,71.80
2017-04-16T05:00:48.326Z,72.10
2017-04-16T05:01:47.293Z,72.10
2017-04-16T05:02:46.272Z,71.80
2017-04-16T05:03:45.232Z,72.60
2017-04-16T05:04:44.263Z,72.00
2017-04-16T05:05:43.239Z,71.90
2017-04-16T05:06:42.244Z,71.80
2017-04-16T05:07:41.207Z,71.90
2017-04-16T05:08:40.212Z,72.00
2017-04-16T05:09:39.216Z,71.80
2017-04-16T05:10:38.202Z,72.00
2017-04-16T05:11:37.174Z,72.00
2017-04-16T05:12:36.201Z,71.80
2017-04-16T05:13:35.182Z,71.40
2017-04-16T05:14:34.876Z,71.20
2017-04-16T05:15:34.572Z,71.00
2017-04-16T05:16:34.294Z,71.30
2017-04-16T05:17:33.286Z,70.50
2017-04-16T05:18:32.259Z,70.60
2017-04-16T05:19:31.215Z,70.70
2017-04-16T05:20:30.189Z,70.80
2017-04-16T05:21:29.145Z,70.80
2017-04-16T05:23:28.294Z,70.40
2017-04-16T05:24:27.263Z,70.00
2017-04-16T05:25:26.956Z,69.90
2017-04-16T05:26:25.935Z,70.30
2017-04-16T05:27:24.952Z,70.50
2017-04-16T05:28:23.931Z,71.40
2017-04-16T05:29:22.892Z,71.90
2017-04-16T05:30:21.845Z,72.20
2017-04-16T05:31:20.829Z,72.60
2017-04-16T05:32:20.584Z,72.20
2017-04-16T05:33:19.564Z,72.50
2017-04-16T05:34:18.597Z,73.10
2017-04-16T05:35:17.555Z,72.80
2017-04-16T05:36:16.510Z,72.60
2017-04-16T05:37:15.472Z,73.70
2017-04-16T05:38:14.431Z,73.10
2017-04-16T05:39:13.492Z,73.30
2017-04-16T05:40:12.501Z,72.80
2017-04-16T05:41:11.470Z,73.10
2017-04-16T05:42:10.440Z,72.60
2017-04-16T05:43:09.403Z,72.50
2017-04-16T05:44:08.405Z,72.60
2017-04-16T05:45:07.364Z,72.30
2017-04-16T05:46:06.364Z,72.10
2017-04-16T05:47:05.327Z,71.90
2017-04-16T05:48:04.295Z,71.70
2017-04-16T05:49:04.007Z,71.60
2017-04-16T05:50:03.004Z,71.80
2017-04-16T05:51:01.959Z,71.70
2017-04-16T05:52:01.681Z,72.70
2017-04-16T05:53:00.634Z,71.80
2017-04-16T05:53:59.628Z,71.50
2017-04-16T05:54:58.643Z,71.70
2017-04-16T05:55:57.639Z,71.40
2017-04-16T05:56:56.605Z,70.60
2017-04-16T05:57:55.581Z,71.60
2017-04-16T05:58:54.575Z,70.30
2017-04-16T05:59:53.533Z,70.80
2017-04-16T06:00:52.861Z,69.80
2017-04-16T06:01:51.863Z,69.20
2017-04-16T06:02:50.850Z,70.50
2017-04-16T06:03:49.808Z,69.40
2017-04-16T06:04:48.832Z,69.90
2017-04-16T06:05:47.806Z,69.60
2017-04-16T06:06:46.778Z,69.30
2017-04-16T06:07:45.752Z,69.70
2017-04-16T06:08:44.717Z,68.70
2017-04-16T06:09:43.732Z,69.30
2017-04-16T06:10:42.732Z,69.40
2017-04-16T06:11:41.704Z,69.00
2017-04-16T06:12:40.687Z,69.00
2017-04-16T06:13:39.643Z,68.80
2017-04-16T06:14:38.641Z,68.70
2017-04-16T06:15:37.627Z,68.90
2017-04-16T06:16:36.582Z,69.70
2017-04-16T06:17:35.557Z,69.60
2017-04-16T06:18:34.540Z,68.50
2017-04-16T06:19:33.512Z,68.70
2017-04-16T06:20:32.883Z,68.40
2017-04-16T06:21:32.979Z,68.50
2017-04-16T06:22:31.948Z,68.70
2017-04-16T06:23:30.910Z,68.10
2017-04-16T06:24:29.887Z,67.90
2017-04-16T06:25:28.877Z,69.10
2017-04-16T06:26:27.891Z,67.60
2017-04-16T06:27:27.229Z,67.60
2017-04-16T06:28:26.520Z,67.60
2017-04-16T06:29:25.543Z,69.20
2017-04-16T06:30:24.863Z,69.40
2017-04-16T06:31:24.592Z,71.10
2017-04-16T06:32:23.566Z,72.50
2017-04-16T06:33:22.527Z,73.20
2017-04-16T06:34:22.227Z,74.20
2017-04-16T06:35:21.230Z,75.00
2017-04-16T06:36:20.221Z,75.30
2017-04-16T06:37:19.179Z,75.40
2017-04-16T06:38:18.949Z,75.90
2017-04-16T06:39:17.927Z,75.80
2017-04-16T06:40:16.894Z,76.50
2017-04-16T06:41:15.876Z,76.10
2017-04-16T06:42:14.855Z,76.50
2017-04-16T06:43:13.871Z,77.20
2017-04-16T06:44:12.852Z,76.70
2017-04-16T06:45:11.825Z,76.30
2017-04-16T06:46:10.800Z,76.60
2017-04-16T06:47:09.751Z,76.80
2017-04-16T06:48:08.707Z,75.10
2017-04-16T06:49:08.424Z,75.10
2017-04-16T06:50:07.444Z,75.00
2017-04-16T06:51:06.455Z,75.30
2017-04-16T06:52:05.480Z,74.60
2017-04-16T06:53:04.428Z,72.60
2017-04-16T06:54:03.398Z,71.80
2017-04-16T06:55:02.382Z,71.60
2017-04-16T06:56:01.385Z,71.10
2017-04-16T06:57:00.347Z,69.70
2017-04-16T06:57:59.332Z,69.70
2017-04-16T06:58:58.310Z,69.90
2017-04-16T06:59:57.281Z,70.60
2017-04-16T07:00:57.032Z,68.60
2017-04-16T07:01:56.001Z,68.60
2017-04-16T07:02:54.961Z,68.70
2017-04-16T07:03:57.764Z,69.00
2017-04-16T07:04:57.760Z,69.60
2017-04-16T07:05:56.724Z,69.20
2017-04-16T07:06:55.724Z,69.50
2017-04-16T07:07:55.349Z,68.80
2017-04-16T07:08:54.317Z,68.60
2017-04-16T07:09:54.044Z,68.20
2017-04-16T07:10:53.030Z,69.50
2017-04-16T07:11:52.034Z,70.10
2017-04-16T07:12:50.995Z,70.00
2017-04-16T07:13:49.991Z,70.30
2017-04-16T07:14:48.986Z,70.00
2017-04-16T07:15:47.962Z,70.30
2017-04-16T07:16:46.932Z,69.80
2017-04-16T07:17:45.909Z,70.60
2017-04-16T07:18:51.449Z,70.90
2017-04-16T07:19:50.406Z,72.50
2017-04-16T07:20:50.162Z,74.00
2017-04-16T07:21:49.163Z,74.00
2017-04-16T07:22:48.149Z,75.30
2017-04-16T07:23:47.115Z,75.30
2017-04-16T07:24:46.373Z,76.40
2017-04-16T07:25:45.418Z,77.20
2017-04-16T07:26:44.384Z,77.90
2017-04-16T07:27:43.349Z,78.50
2017-04-16T07:28:42.300Z,78.50
2017-04-16T07:29:41.269Z,80.10
2017-04-16T07:30:40.293Z,79.60
2017-04-16T07:31:39.273Z,79.40
2017-04-16T07:32:38.288Z,80.10
2017-04-16T07:33:37.253Z,80.60
2017-04-16T07:34:36.231Z,80.90
2017-04-16T07:35:35.228Z,80.20
2017-04-16T07:36:34.211Z,80.50
2017-04-16T07:37:33.176Z,80.40
2017-04-16T07:38:32.426Z,81.00
2017-04-16T07:39:31.387Z,81.80
2017-04-16T07:40:30.343Z,80.20
2017-04-16T07:41:29.312Z,80.50
2017-04-16T07:42:28.304Z,79.80
2017-04-16T07:43:27.256Z,79.30
2017-04-16T07:44:26.235Z,79.70
2017-04-16T07:45:25.226Z,80.50
2017-04-16T07:46:24.191Z,81.10
2017-04-16T07:47:23.153Z,81.00
2017-04-16T07:48:22.876Z,80.50
2017-04-16T07:49:22.048Z,80.10
2017-04-16T07:50:21.756Z,80.70
2017-04-16T07:51:20.739Z,78.90
2017-04-16T07:52:20.442Z,79.20
2017-04-16T07:53:19.408Z,79.10
2017-04-16T07:54:18.451Z,78.90
2017-04-16T07:55:17.412Z,79.40
2017-04-16T07:56:16.375Z,77.80
2017-04-16T07:57:15.336Z,77.30
2017-04-16T07:58:14.300Z,77.90
2017-04-16T07:59:13.266Z,79.10
2017-04-16T08:00:12.761Z,79.60
2017-04-16T08:01:11.743Z,78.90
2017-04-16T08:02:10.705Z,78.20
2017-04-16T08:03:09.670Z,76.70
2017-04-16T08:04:08.648Z,77.30
2017-04-16T08:05:07.645Z,77.10
2017-04-16T08:06:06.700Z,76.20
2017-04-16T08:07:06.382Z,75.70
2017-04-16T08:08:05.356Z,76.70
2017-04-16T08:09:04.783Z,76.50
2017-04-16T08:10:04.496Z,74.40
2017-04-16T08:11:03.481Z,77.40
2017-04-16T08:12:02.479Z,76.60
2017-04-16T08:13:01.452Z,74.70
2017-04-16T08:14:00.431Z,74.10
2017-04-16T08:14:59.413Z,74.80
2017-04-16T08:15:58.384Z,73.90
2017-04-16T08:16:58.117Z,74.10
2017-04-16T08:17:57.104Z,73.80
2017-04-16T08:18:56.069Z,73.80
2017-04-16T08:19:55.202Z,73.30
2017-04-16T08:20:54.220Z,71.70
2017-04-16T08:21:53.923Z,71.50
2017-04-16T08:22:52.873Z,70.60
2017-04-16T08:23:51.876Z,70.70
2017-04-16T08:24:51.600Z,70.50
2017-04-16T08:25:50.577Z,70.80
2017-04-16T08:26:49.569Z,70.30
2017-04-16T08:27:48.551Z,69.50
2017-04-16T08:28:47.508Z,70.50
2017-04-16T08:29:47.224Z,70.60
2017-04-16T08:30:46.279Z,71.10
2017-04-16T08:31:45.242Z,69.80
2017-04-16T08:32:44.195Z,69.70
2017-04-16T08:33:43.171Z,68.40
2017-04-16T08:34:42.143Z,69.20
2017-04-16T08:35:41.140Z,69.10
2017-04-16T08:36:40.100Z,68.60
2017-04-16T08:37:39.813Z,66.30
2017-04-16T08:38:38.782Z,65.50
2017-04-16T08:39:38.499Z,66.40
2017-04-16T08:40:37.457Z,64.60
2017-04-16T08:41:37.182Z,64.00
2017-04-16T08:42:36.178Z,63.60
2017-04-16T08:43:35.193Z,62.30
2017-04-16T08:44:34.176Z,61.50
2017-04-16T08:45:33.122Z,61.60
2017-04-16T08:46:32.097Z,63.30
2017-04-16T08:47:31.075Z,61.40
2017-04-16T08:48:30.040Z,60.80
2017-04-16T08:49:29.718Z,61.20
2017-04-16T08:50:28.911Z,60.20
2017-04-16T08:51:27.876Z,60.30
2017-04-16T08:52:26.855Z,59.80
2017-04-16T08:53:25.910Z,60.30
2017-04-16T08:54:24.867Z,60.20
2017-04-16T08:55:24.568Z,61.60
2017-04-16T08:56:23.523Z,60.00
2017-04-16T08:57:22.486Z,59.50
2017-04-16T08:58:21.461Z,58.90
2017-04-16T08:59:20.427Z,58.80
2017-04-16T09:00:19.405Z,58.40
2017-04-16T09:01:18.365Z,58.30
2017-04-16T09:02:17.341Z,59.00
2017-04-16T09:03:16.304Z,58.30
2017-04-16T09:04:16.000Z,58.10
2017-04-16T09:05:15.016Z,58.10
2017-04-16T09:06:13.971Z,58.70
2017-04-16T09:07:12.924Z,58.30
2017-04-16T09:08:12.642Z,58.60
2017-04-16T09:09:11.615Z,58.60
2017-04-16T09:10:10.576Z,59.70
2017-04-16T09:11:09.555Z,59.90
2017-04-16T09:12:08.523Z,59.50
2017-04-16T09:13:07.478Z,59.40
2017-04-16T09:14:06.430Z,59.40
2017-04-16T09:15:05.383Z,59.40
2017-04-16T09:16:04.399Z,59.30
2017-04-16T09:17:03.432Z,59.50
2017-04-16T09:18:02.436Z,59.40
2017-04-16T09:19:01.391Z,59.50
2017-04-16T09:20:00.351Z,58.90
2017-04-16T09:20:59.312Z,58.00
2017-04-16T09:21:58.336Z,57.60
2017-04-16T09:22:57.311Z,57.00
2017-04-16T09:23:57.022Z,57.10
2017-04-16T09:24:55.984Z,57.60
2017-04-16T09:25:55.316Z,57.70
2017-04-16T09:26:54.280Z,57.00
2017-04-16T09:27:53.230Z,57.10
2017-04-16T09:28:52.243Z,56.10
2017-04-16T09:29:51.230Z,55.70
2017-04-16T09:30:50.192Z,56.00
2017-04-16T09:31:49.175Z,56.00
2017-04-16T09:32:48.125Z,55.60
2017-04-16T09:33:47.097Z,54.60
2017-04-16T09:34:46.125Z,53.70
2017-04-16T09:35:45.109Z,53.20
2017-04-16T09:36:44.104Z,53.80
2017-04-16T09:37:43.827Z,54.10
2017-04-16T09:38:42.801Z,55.20
2017-04-16T09:39:41.750Z,58.50
2017-04-16T09:40:40.727Z,55.10
2017-04-16T09:41:39.667Z,56.50
2017-04-16T09:42:38.633Z,56.30
2017-04-16T09:43:37.634Z,56.10
2017-04-16T09:44:38.494Z,55.40
2017-04-16T09:45:37.468Z,55.50
2017-04-16T09:46:36.461Z,55.60
2017-04-16T09:47:35.450Z,55.40
2017-04-16T09:48:34.422Z,55.50
2017-04-16T09:49:33.732Z,56.10
2017-04-16T09:50:32.691Z,55.30
2017-04-16T09:51:31.681Z,55.60
2017-04-16T09:52:30.668Z,55.00
2017-04-16T09:53:29.628Z,53.80
2017-04-16T09:54:28.587Z,53.70
2017-04-16T09:55:27.562Z,53.80
2017-04-16T09:56:26.544Z,53.40
2017-04-16T09:57:25.568Z,53.10
2017-04-16T09:58:24.568Z,52.80
2017-04-16T09:59:23.544Z,53.00
2017-04-16T10:00:22.515Z,52.80
2017-04-16T10:01:21.499Z,52.10
2017-04-16T10:02:20.491Z,52.80
2017-04-16T10:03:19.483Z,53.40
2017-04-16T10:04:18.537Z,53.30
2017-04-16T10:05:17.596Z,52.60
2017-04-16T10:06:16.567Z,53.20
2017-04-16T10:07:15.527Z,54.50
2017-04-16T10:08:14.467Z,56.90
2017-04-16T10:09:13.447Z,58.40
2017-04-16T10:10:12.728Z,59.10
2017-04-16T10:11:11.751Z,59.70
2017-04-16T10:12:10.836Z,61.70
2017-04-16T10:13:09.924Z,62.00
2017-04-16T10:14:08.921Z,62.80
2017-04-16T10:15:07.900Z,64.30
2017-04-16T10:16:06.945Z,65.50
2017-04-16T10:17:05.940Z,65.90
2017-04-16T10:18:04.916Z,66.30
2017-04-16T10:19:03.871Z,65.80
2017-04-16T10:20:02.809Z,64.80
2017-04-16T10:21:01.772Z,65.30
2017-04-16T10:22:00.753Z,64.70
2017-04-16T10:22:59.744Z,65.50
2017-04-16T10:23:58.695Z,66.40
2017-04-16T10:24:57.644Z,68.00
2017-04-16T10:25:56.632Z,67.50
2017-04-16T10:26:55.586Z,67.70
2017-04-16T10:27:54.584Z,68.40
2017-04-16T10:28:54.352Z,69.70
2017-04-16T10:29:53.338Z,69.30
2017-04-16T10:30:52.343Z,69.70
2017-04-16T10:31:51.301Z,71.70
2017-04-16T10:32:50.269Z,70.00
2017-04-16T10:33:49.277Z,69.80
2017-04-16T10:34:48.227Z,69.80
2017-04-16T10:35:47.177Z,70.30
2017-04-16T10:36:46.137Z,65.60
2017-04-16T10:37:45.907Z,64.80
2017-04-16T10:38:44.948Z,66.10
2017-04-16T10:39:43.940Z,65.80
2017-04-16T10:40:42.902Z,62.80
2017-04-16T10:41:42.155Z,64.50
2017-04-16T10:42:41.119Z,63.60
2017-04-16T10:43:40.536Z,64.60
2017-04-16T10:44:39.492Z,64.50
2017-04-16T10:45:39.209Z,65.30
2017-04-16T10:46:38.155Z,64.90
2017-04-16T10:47:37.142Z,65.50
2017-04-16T10:48:36.120Z,65.40
2017-04-16T10:49:35.084Z,66.80
2017-04-16T10:50:34.043Z,67.30
2017-04-16T10:51:33.032Z,68.20
2017-04-16T10:52:31.988Z,66.60
2017-04-16T10:53:30.956Z,67.50
2017-04-16T10:54:30.730Z,69.60
2017-04-16T10:55:29.689Z,71.80
2017-04-16T10:56:28.642Z,71.30
2017-04-16T10:57:27.643Z,70.00
2017-04-16T10:58:26.578Z,69.70
2017-04-16T10:59:25.556Z,69.60
2017-04-16T11:00:24.499Z,69.60
2017-04-16T11:01:23.497Z,70.10
2017-04-16T11:02:23.268Z,69.50
2017-04-16T11:03:22.265Z,70.20
2017-04-16T11:04:21.225Z,69.80
2017-04-16T11:05:20.204Z,68.50
2017-04-16T11:06:19.197Z,70.00
2017-04-16T11:07:18.157Z,71.20
2017-04-16T11:08:17.856Z,72.00
2017-04-16T11:09:17.568Z,66.60
2017-04-16T11:10:17.301Z,67.40
2017-04-16T11:11:16.278Z,66.00
2017-04-16T11:12:15.264Z,65.20
2017-04-16T11:13:14.303Z,65.20
2017-04-16T11:14:13.266Z,65.00
2017-04-16T11:15:12.285Z,64.60
2017-04-16T11:16:11.248Z,66.30
2017-04-16T11:17:10.968Z,68.00
2017-04-16T11:18:09.982Z,67.00
2017-04-16T11:19:08.973Z,66.10
2017-04-16T11:20:07.943Z,66.20
2017-04-16T11:21:06.957Z,66.50
2017-04-16T11:22:05.920Z,66.10
2017-04-16T11:23:04.873Z,65.40
2017-04-16T11:24:03.824Z,62.70
2017-04-16T11:25:02.784Z,62.20
2017-04-16T11:26:01.743Z,60.80
2017-04-16T11:27:00.797Z,59.80
2017-04-16T11:27:59.792Z,61.00
2017-04-16T11:28:58.757Z,61.00
2017-04-16T11:29:57.717Z,60.10
2017-04-16T11:30:56.706Z,60.10
2017-04-16T11:31:55.658Z,60.10
2017-04-16T11:32:54.628Z,60.80
2017-04-16T11:33:54.344Z,62.50
2017-04-16T11:34:53.287Z,63.90
2017-04-16T11:35:52.253Z,64.70
2017-04-16T11:36:51.196Z,66.00
2017-04-16T11:37:50.161Z,65.80
2017-04-16T11:38:49.161Z,65.90
2017-04-16T11:39:48.114Z,66.10
2017-04-16T11:40:47.100Z,67.60
2017-04-16T11:41:46.799Z,70.20
2017-04-16T11:42:46.509Z,71.30
2017-04-16T11:43:46.219Z,71.80
2017-04-16T11:44:45.224Z,73.70
2017-04-16T11:45:44.220Z,70.60
2017-04-16T11:46:43.181Z,69.90
2017-04-16T11:47:42.127Z,70.50
2017-04-16T11:48:41.818Z,70.20
2017-04-16T11:49:40.769Z,69.40
2017-04-16T11:50:39.747Z,69.20
2017-04-16T11:51:38.707Z,68.40
2017-04-16T11:52:37.671Z,67.80
2017-04-16T11:53:37.381Z,67.70
2017-04-16T11:54:36.349Z,67.60
2017-04-16T11:55:36.051Z,66.60
2017-04-16T11:56:35.763Z,66.60
2017-04-16T11:57:34.725Z,65.00
2017-04-16T11:58:34.406Z,65.20
2017-04-16T12:00:32.668Z,61.60
2017-04-16T12:01:31.645Z,60.50
2017-04-16T12:02:30.620Z,61.80
2017-04-16T12:03:29.577Z,61.20
2017-04-16T12:04:28.541Z,60.10
2017-04-16T12:05:27.527Z,59.30
2017-04-16T12:06:26.481Z,59.90
2017-04-16T12:07:25.440Z,60.00
2017-04-16T12:08:24.567Z,60.20
2017-04-16T12:09:24.256Z,60.60
2017-04-16T12:10:23.216Z,60.20
2017-04-16T12:11:22.205Z,59.30
2017-04-16T12:12:21.217Z,58.60
2017-04-16T12:13:20.937Z,59.50
2017-04-16T12:14:19.914Z,59.70
2017-04-16T12:15:18.864Z,60.70
2017-04-16T12:16:17.832Z,61.80
2017-04-16T12:17:16.820Z,61.60
2017-04-16T12:18:15.784Z,62.10
2017-04-16T12:19:14.786Z,62.80
2017-04-16T12:20:13.747Z,63.90
2017-04-16T12:21:12.723Z,63.70
2017-04-16T12:22:11.674Z,63.30
2017-04-16T12:23:10.661Z,63.60
2017-04-16T12:24:09.607Z,63.30
2017-04-16T12:25:08.570Z,60.70
2017-04-16T12:26:07.541Z,59.80
2017-04-16T12:27:06.542Z,60.30
2017-04-16T12:28:05.490Z,60.40
2017-04-16T12:29:04.456Z,60.60
2017-04-16T12:30:03.410Z,59.90
2017-04-16T12:31:02.358Z,59.40
2017-04-16T12:32:01.382Z,58.30
2017-04-16T12:33:01.085Z,58.60
2017-04-16T12:34:00.766Z,58.20
2017-04-16T12:34:59.753Z,58.20
2017-04-16T12:35:58.718Z,59.10
2017-04-16T12:36:57.691Z,59.30
2017-04-16T12:37:56.646Z,59.90
2017-04-16T12:38:55.601Z,60.30
2017-04-16T12:39:55.289Z,60.10
2017-04-16T12:40:54.239Z,59.90
2017-04-16T12:41:53.191Z,60.20
2017-04-16T12:42:52.159Z,60.20